EST,Max TemperatureF,Mean TemperatureF,Min TemperatureF,Max Dew PointF,MeanDew PointF,Min DewpointF,Max Humidity, Mean Humidity, Min Humidity, Max Sea Level PressureIn, Mean Sea Level PressureIn, Min Sea Level PressureIn, Max VisibilityMiles, Mean VisibilityMiles, Min VisibilityMiles, Max Wind SpeedMPH, Mean Wind SpeedMPH, Max Gust SpeedMPH,PrecipitationIn, CloudCover, Events, WindDirDegrees
2013-12-1,44,35,26,34,29,24,91,75,58,30.08,30.03,30.00,10,8,3,8,4,,0.00,3,,280
2013-12-2,40,32,24,33,27,23,99,84,60,29.99,29.90,29.85,10,6,0,8,2,,0.00,5,Fog,111
2013-12-3,45,38,32,44,37,28,95,91,78,29.85,29.80,29.75,7,3,2,10,6,16,0.00,8,Rain-Snow,130
2013-12-4,60,50,41,56,48,40,96,92,83,29.82,29.72,29.59,7,3,0,15,6,21,0.00,7,Fog-Rain,163
2013-12-5,59,44,29,55,30,21,88,74,65,30.18,29.93,29.60,10,10,7,18,12,26,0.00,6,,270
2013-12-6,29,26,24,22,18,13,73,69,63,30.40,30.27,30.16,10,10,10,12,9,12,0.00,8,Snow,315
2013-12-7,24,20,15,19,13,10,86,71,58,30.61,30.54,30.42,10,9,4,13,7,18,0.00,7,Snow,309
2013-12-8,27,20,14,25,16,11,93,81,66,30.55,30.29,29.95,10,7,1,14,5,20,0.00,5,Snow,99
2013-12-9,28,22,17,26,18,8,94,78,63,30.14,30.02,29.89,10,7,1,16,9,25,0.00,7,Snow,240
2013-12-10,23,14,4,13,7,-2,80,67,53,30.22,30.09,29.97,10,10,4,20,10,26,0.00,6,Snow,240
2013-12-11,24,18,12,19,12,6,85,76,67,30.45,30.32,30.23,10,6,1,20,8,25,0.00,7,Snow,264
2013-12-12,19,10,2,11,3,-6,79,65,44,30.46,30.34,30.20,10,9,3,15,9,22,0.00,5,Snow,232
2013-12-13,29,22,14,22,15,9,78,72,64,30.21,30.17,30.14,10,10,3,10,6,,0.00,5,Snow,163
2013-12-14,27,23,19,23,19,16,87,85,81,30.17,29.98,29.86,10,4,1,14,10,20,0.00,8,Snow,47
2013-12-15,26,20,13,22,16,9,87,82,74,30.04,29.92,29.85,10,5,1,17,7,25,0.00,8,Snow,249
2013-12-16,20,10,0,15,9,-4,86,79,64,30.15,30.07,29.99,10,6,1,8,4,,0.00,5,Snow,170
2013-12-17,28,22,17,25,20,14,89,85,79,30.01,29.96,29.90,10,5,0,16,6,21,0.00,8,Snow,230
2013-12-18,30,26,23,22,17,13,78,69,59,30.15,30.02,29.86,10,10,10,15,9,20,0.00,4,,214
2013-12-19,41,35,29,35,31,18,93,79,61,29.95,29.89,29.84,10,9,0,12,7,,0.00,3,Rain,199
2013-12-20,42,38,34,41,36,33,98,96,92,29.84,29.75,29.71,3,1,0,7,2,,0.00,8,Fog-Rain-Snow,127
2013-12-21,36,34,32,35,33,32,98,97,95,29.82,29.76,29.61,10,2,0,15,4,26,0.00,8,Fog-Rain-Snow,42
2013-12-22,36,34,32,33,31,29,96,92,85,30.00,29.73,29.53,10,6,2,15,8,18,0.00,8,Rain-Snow,297
2013-12-23,32,22,13,29,20,6,89,77,66,30.35,30.22,30.00,10,8,2,16,10,22,0.00,8,Snow,261
2013-12-24,19,12,6,11,6,1,80,74,65,30.49,30.44,30.35,10,9,3,12,7,17,0.00,5,Snow,223
2013-12-25,26,23,20,24,19,13,90,80,72,30.30,30.20,30.07,10,8,2,18,11,21,0.00,8,Snow,199
2013-12-26,30,26,23,25,20,15,90,78,64,30.25,30.17,30.04,10,8,2,13,8,22,0.00,7,Snow,224
2013-12-27,39,34,30,31,28,25,84,76,65,30.29,30.20,30.09,10,10,7,18,7,25,0.00,4,,212
2013-12-28,46,39,32,33,31,28,86,70,58,30.11,30.02,29.87,10,10,10,15,10,22,0.00,0,,214
2013-12-29,40,32,23,32,26,15,89,75,67,30.05,29.85,29.74,10,9,2,18,10,26,0.00,4,Snow,267
2013-12-30,23,20,15,17,11,8,85,71,57,30.24,30.16,30.05,10,8,1,12,7,17,0.00,8,Snow,286
2013-12-31,17,16,14,12,9,5,86,77,62,30.31,30.21,30.09,10,5,1,14,8,21,0.00,8,Snow,237